• Join FlightAware (Why Join?)
  • Login
  • US Flag 
04:02AM EDT


 

Airport Tracker/Info


-or-


 

Live Flight TrackerFlight Track Log ✈ PWA444 ✈ 15-Apr-2013 ✈ KCAK - KUES

Flight Track Log - Related Links

Times and Time Zones

All times are in EDT time to prevent confusion due to time zone crossing. See the PWA444 flight status page for this flight to view local times or setup timezone preferences in your user account.

Time Position Orientation Groundspeed Altitude Reporting Facility
EDT Latitude Longitude Course Direction KTS MPH feet Rate Location/Type
07:06AM 40.8781 -81.5581 268° West 254 292 6,000  Level Cleveland Center
07:07AM 40.8794 -81.6514 271° West 272 313 8,000 1,620 Climbing Cleveland Center
07:08AM 40.8761 -81.7583 268° West 285 328 9,300 1,980 Climbing Cleveland Center
07:09AM 40.8936 -81.8878 280° West 309 356 12,000 3,240 Climbing Cleveland Center
07:10AM 40.9422 -82.0097 298° West 356 410 15,800 3,300 Climbing Cleveland Center
07:11AM 40.9855 -81.9458 333° Northwest  Level FlightAware Approximate
07:12AM 41.0386 -82.2625 297° West 379 436 21,900  Level Cleveland Center
07:13AM 41.0867 -82.3903 297° West 390 449 23,500 2,100 Climbing Cleveland Center
07:14AM 41.1367 -82.5214 297° West 390 449 26,100 2,580 Climbing Cleveland Center
07:15AM 41.1864 -82.6581 296° West 396 456 28,700 2,400 Climbing Cleveland Center
07:16AM 41.2556 -82.7514 315° West 396 456 30,900 2,520 Climbing Cleveland Center
07:17AM 41.3503 -82.8236 330° Northwest 388 447 33,800 1,500 Climbing Cleveland Center
07:18AM 41.4189 -82.9258 312° West 377 434 34,000 60 Climbing Cleveland Center
07:19AM 41.4794 -83.0306 308° West 366 421 34,000  Level Cleveland Center
07:20AM 41.5417 -83.1356 308° West 359 413 34,000  Level Cleveland Center
07:21AM 41.5978 -83.2378 306° West 354 407 34,000  Level Cleveland Center
07:22AM 41.6619 -83.3431 309° West 354 407 34,000  Level Cleveland Center
07:23AM 41.7219 -83.4486 307° West 354 407 34,000  Level Cleveland Center
07:24AM 41.7839 -83.5544 308° West 354 407 34,000  Level Cleveland Center
07:25AM 41.8436 -83.6606 307° West 354 407 34,000 -2,040 Level Cleveland Center
07:26AM 41.9033 -83.7639 308° West 349 402 30,000 -2,040 Descending Cleveland Center
07:27AM 41.9728 -83.8844 308° West 375 432 30,000  Level Cleveland Center
07:28AM 42.0442 -84.0086 308° West 404 465 30,000  Level Cleveland Center
07:29AM 42.1175 -84.1356 308° West 429 494 30,000  Level Cleveland Center
07:30AM 42.1908 -84.2631 308° West 435 501 30,000  Level Cleveland Center
07:31AM 42.2636 -84.3908 308° West 430 495 30,000  Level Cleveland Center
07:32AM 42.3344 -84.5186 307° West 430 495 30,000 -120 Level Cleveland Center
07:33AM 42.4069 -84.6500 307° West 430 495 29,800 -780 Descending Cleveland Center
07:34AM 42.4556 -84.7300 309° West 408 470 28,700 -1,080 Descending Chicago Center
07:35AM 42.5186 -84.8419 307° West 381 438 28,000 -360 Descending Chicago Center
07:36AM 42.5825 -84.9575 307° West 385 443 28,000 -720 Level Chicago Center
07:37AM 42.6456 -85.0747 306° West 386 444 26,600 -1,020 Descending Chicago Center
07:38AM 42.7075 -85.1858 307° West 375 432 26,000 -300 Descending Chicago Center
07:39AM 42.7836 -85.3242 307° West 380 437 26,000  Level Chicago Center
07:40AM 42.8467 -85.4403 307° West 383 441 26,000  Level Chicago Center
07:41AM 42.9150 -85.5664 307° West 413 475 26,000  Level Chicago Center
07:42AM 42.9817 -85.6897 306° West 408 470 26,000  Level Chicago Center
07:43AM 43.0461 -85.8100 306° West 399 459 26,000 -180 Level Chicago Center
07:44AM 43.1108 -85.9292 307° West 402 463 25,700 -900 Descending Chicago Center
07:45AM 43.1608 -86.0858 294° West 387 445 24,200 -1,560 Descending Chicago Center
07:46AM 43.1672 -86.2300 274° West 390 449 22,600 -1,560 Descending Chicago Center
07:47AM 43.1650 -86.3692 269° West 368 423 21,100 -1,500 Descending Chicago Center
07:48AM 43.1622 -86.5039 268° West 356 410 19,600 -1,440 Descending Chicago Center
07:49AM 43.1600 -86.6369 269° West 351 404 18,200 -1,620 Descending Chicago Center
07:50AM 43.1561 -86.7917 268° West 340 391 16,300 -1,560 Descending Chicago Center
07:51AM 43.1544 -86.9119 269° West 316 364 15,100 -1,560 Descending Chicago Center
07:52AM 43.1517 -87.0256 268° West 304 350 13,200 -2,100 Descending Chicago Center
07:54AM 43.1492 -87.1383 268° West 297 342 10,800 -1,680 Descending Chicago Center
07:55AM 43.1456 -87.2392 267° West 263 303 9,800 -420 Descending Chicago Center
07:56AM 43.1439 -87.3378 269° West 259 298 10,000 60 Climbing Chicago Center
07:57AM 43.1408 -87.4536 268° West 278 320 10,000  Level Chicago Center
07:58AM 43.1378 -87.5603 268° West 280 322 10,000 -540 Level Chicago Center
07:59AM 43.1350 -87.6536 268° West 254 292 8,900 -1,320 Descending Chicago Center
08:00AM 43.1328 -87.7497 268° West 250 288 7,400 -1,440 Descending Chicago Center
08:01AM 43.1297 -87.8597 268° West 248 285 6,000 -1,200 Descending Chicago Center
08:02AM 43.1261 -87.9578 267° West 255 293 5,000 -1,020 Descending Chicago Center
08:03AM 43.1231 -88.0547 268° West 255 293 4,000 -540 Descending Chicago Center
08:04AM 43.1206 -88.1536 268° West 256 295 4,000  Level Chicago Center
08:05AM 43.1172 -88.2458 267° West 251 289 4,000 -60 Level Chicago Center
08:06AM 43.1211 -88.3272 274° West 231 266 3,900 -540 Descending Chicago Center
08:07AM 43.1361 -88.4058 285° West 218 251 2,900 -600 Descending Chicago Center
08:08AM 43.1119 -88.4483 232° Southwest 185 213 2,700 -120 Descending Chicago Center
08:09AM 43.0706 -88.4125 148° Southeast 170 196 2,700 -180 Level Chicago Center
08:10AM 43.0569 -88.3503 107° East 169 194 2,400 -600 Descending Chicago Center
08:11AM 43.0497 -88.2889 99° East 167 192 1,500 -600 Descending Chicago Center
08:12AM 43.0408 -88.2233 100° East 165 190 1,200 -300 Descending Chicago Center